Rocketboat — WDE4290 — position and weather

sailwx.info

Track history (hours):
 
Tides and Currents Weather Stations Pressure Air Temp Water Temp Dewpoint Dewpoint Depression Visibility Wind Speed Wind Dir Waves Ship Positions

Rocketboat

Owner: Blue and Gold Fleet, San Francisco, CA. More information available from US FCC via Universal Licensing System and Coast Guard Vessel Documentation Center.

Last reported at 2018-Jul-11 20:38 UTC. Time now 2018-Jul-17 09:31 UTC.
Position N 37°55' W 122°22'.

Length 22 m.

Type: Passenger vessel. MMSI: 367350770.

Date/timePositionNaut miles runAvg speedWind from/ knotsBaromVisibWave heightAir tempDewpointWater temp
2018-Jul-11 20:38N 37°55' W 122°22'0 0.0
2018-Jul-11 20:27N 37°55' W 122°22'0 0.1
2018-Jul-11 19:23N 37°55' W 122°22'1 3.8
2018-Jul-11 19:00N 37°54' W 122°24'510.6
2018-Jul-11 18:30N 37°49' W 122°24'1 0.2
2018-Jul-11 15:43N 37°49' W 122°25'0 0.0
2018-Jul-11 15:30N 37°49' W 122°25'0 0.0
2018-Jul-11 14:59N 37°49' W 122°25'0 0.0
2018-Jul-11 04:27N 37°49' W 122°25'0 0.0
2018-Jul-11 03:59N 37°49' W 122°25'0 0.0
2018-Jul-11 03:30N 37°49' W 122°25'0 0.0
2018-Jul-11 03:00N 37°49' W 122°25'0 0.0
2018-Jul-11 02:30N 37°49' W 122°25'0 0.0
2018-Jul-11 02:00N 37°49' W 122°25'0 0.0
2018-Jul-11 01:30N 37°49' W 122°25'0 0.0
2018-Jul-11 01:00N 37°49' W 122°25'0 0.0
2018-Jul-11 00:30N 37°49' W 122°25'0 0.0
2018-Jul-11 00:00N 37°49' W 122°25'0 0.0
2018-Jul-09 20:59N 37°49' W 122°25'2 3.5
2018-Jul-09 20:30N 37°48' W 122°23'2 3.3
2018-Jul-09 20:00N 37°49' W 122°25'0 0.0
2018-Jul-09 19:30N 37°49' W 122°25'0 0.1
2018-Jul-09 18:57N 37°49' W 122°25'0 0.3
2018-Jul-09 18:30N 37°49' W 122°25'0 0.3
2018-Jul-09 18:00N 37°49' W 122°25'0 0.0
2018-Jul-09 17:30N 37°49' W 122°25'0 0.0
2018-Jul-09 17:00N 37°49' W 122°25'0 0.0
2018-Jul-09 16:30N 37°49' W 122°25'0 0.0
2018-Jul-09 16:00N 37°49' W 122°25'0 0.0
2018-Jul-09 02:37N 37°49' W 122°25'0 0.0
2018-Jul-09 02:30N 37°49' W 122°25'1 3.0
2018-Jul-09 02:00N 37°48' W 122°23'1 3.0
2018-Jul-09 01:30N 37°49' W 122°25'0 0.0
2018-Jul-09 01:00N 37°49' W 122°25'2 3.2
2018-Jul-09 00:30N 37°48' W 122°23'2 3.2
2018-Jul-09 00:00N 37°49' W 122°25'0 0.0
2018-Jul-08 23:30N 37°49' W 122°25'2 4.0
2018-Jul-08 23:01N 37°48' W 122°22'2 3.9
2018-Jul-08 22:30N 37°49' W 122°25'2 4.5
2018-Jul-08 22:00N 37°47' W 122°23'2 4.4
2018-Jul-08 21:30N 37°49' W 122°25'0 0.0
2018-Jul-08 21:00N 37°49' W 122°25'2 3.8
2018-Jul-08 20:30N 37°47' W 122°23'2 3.9
2018-Jul-08 20:00N 37°49' W 122°25'0 0.0
2018-Jul-08 19:30N 37°49' W 122°25'0 0.0
2018-Jul-08 19:00N 37°49' W 122°25'0 0.1
2018-Jul-08 18:30N 37°49' W 122°25'0 0.0
2018-Jul-08 03:02N 37°49' W 122°25'0 0.0
2018-Jul-08 03:00N 37°49' W 122°25'0 0.0
2018-Jul-08 02:30N 37°49' W 122°25'2 3.4
2018-Jul-08 02:01N 37°48' W 122°23'2 3.3
2018-Jul-08 01:30N 37°49' W 122°25'0 0.0
2018-Jul-08 00:59N 37°49' W 122°25'2 3.2
2018-Jul-08 00:31N 37°48' W 122°23'2 2.9
2018-Jul-07 23:59N 37°49' W 122°25'0 0.0
2018-Jul-07 23:30N 37°49' W 122°25'2 3.7
2018-Jul-07 23:01N 37°48' W 122°22'2 3.7
2018-Jul-07 22:30N 37°49' W 122°25'2 4.9
2018-Jul-07 22:01N 37°47' W 122°22'2 4.8
2018-Jul-07 21:30N 37°49' W 122°25'0 0.0
2018-Jul-07 21:00N 37°49' W 122°25'2 3.1
2018-Jul-07 20:30N 37°48' W 122°23'2 3.3
2018-Jul-07 20:00N 37°49' W 122°25'0 0.3
2018-Jul-07 19:30N 37°49' W 122°25'0 0.2
2018-Jul-07 19:00N 37°49' W 122°25'0 0.0
2018-Jul-07 18:30N 37°49' W 122°25'0 0.0
2018-Jul-07 18:00N 37°49' W 122°25'0 0.0
2018-Jul-07 17:30N 37°49' W 122°25'0 0.0
2018-Jul-07 02:19N 37°49' W 122°25'2 6.8
2018-Jul-07 02:00N 37°47' W 122°23'2 4.1
2018-Jul-07 01:30N 37°49' W 122°25'0 0.0
2018-Jul-07 01:01N 37°49' W 122°25'0 0.0
2018-Jul-07 00:30N 37°49' W 122°25'0 0.0
2018-Jul-07 00:00N 37°49' W 122°25'0 0.0
2018-Jul-06 23:31N 37°49' W 122°25'0 0.0
2018-Jul-06 23:00N 37°49' W 122°25'0 0.0
2018-Jul-06 22:31N 37°49' W 122°25'0 0.0
2018-Jul-06 22:00N 37°49' W 122°25'0 0.0
2018-Jul-06 21:31N 37°49' W 122°25'0 0.0
2018-Jul-06 20:59N 37°49' W 122°25'0 0.0
2018-Jul-06 20:31N 37°49' W 122°25'0 0.0
2018-Jul-06 20:00N 37°49' W 122°25'0 0.0
2018-Jul-06 19:30N 37°49' W 122°25'0 0.0
2018-Jul-06 19:00N 37°49' W 122°25'0 0.0
2018-Jul-06 18:31N 37°49' W 122°25'0 0.0
2018-Jul-06 18:00N 37°49' W 122°25'0 0.0
2018-Jul-06 17:29N 37°49' W 122°25'0 0.0
2018-Jul-06 16:59N 37°49' W 122°25'0 0.0
2018-Jul-06 16:30N 37°49' W 122°25'0 0.0
2018-Jul-06 16:00N 37°49' W 122°25'0 0.0
2018-Jul-06 15:30N 37°49' W 122°25'0 0.0
2018-Jul-06 14:59N 37°49' W 122°25'0 0.0
2018-Jul-06 14:31N 37°49' W 122°25'0 0.0
2018-Jul-06 14:00N 37°49' W 122°25'0 0.0
2018-Jul-06 13:30N 37°49' W 122°25'0 0.0
2018-Jul-06 13:01N 37°49' W 122°25'0 0.0
2018-Jul-06 12:29N 37°49' W 122°25'0 0.0
2018-Jul-06 11:58N 37°49' W 122°25'0 0.0
2018-Jul-06 11:25N 37°49' W 122°25'0 0.0
2018-Jul-06 11:00N 37°49' W 122°25'0 0.0
2018-Jul-06 10:30N 37°49' W 122°25'0 0.0
2018-Jul-06 10:00N 37°49' W 122°25'0 0.0
2018-Jul-06 09:31N 37°49' W 122°25'0 0.0
2018-Jul-06 09:01N 37°49' W 122°25'0 0.0
2018-Jul-06 08:31N 37°49' W 122°25'0 0.0
2018-Jul-06 07:59N 37°49' W 122°25'0 0.0
2018-Jul-06 07:30N 37°49' W 122°25'0 0.0
2018-Jul-06 07:00N 37°49' W 122°25'0 0.0
2018-Jul-06 06:31N 37°49' W 122°25'0 0.0
2018-Jul-06 06:00N 37°49' W 122°25'0 0.0
2018-Jul-06 05:30N 37°49' W 122°25'0 0.0
2018-Jul-06 05:00N 37°49' W 122°25'0 0.0
2018-Jul-06 04:31N 37°49' W 122°25'0 0.0
2018-Jul-06 04:01N 37°49' W 122°25'0 0.0
2018-Jul-06 03:31N 37°49' W 122°25'0 0.0
2018-Jul-06 03:01N 37°49' W 122°25'0 0.0
2018-Jul-06 02:31N 37°49' W 122°25'0 0.0
2018-Jul-06 02:00N 37°49' W 122°25'0 0.0
2018-Jul-06 01:31N 37°49' W 122°25'0 0.0
2018-Jul-06 01:00N 37°49' W 122°25'0 0.0
2018-Jul-06 00:30N 37°49' W 122°25'0 0.0
2018-Jul-06 00:01N 37°49' W 122°25'0 0.0
2018-Jul-05 23:31N 37°49' W 122°25'0 0.0
2018-Jul-05 23:00N 37°49' W 122°25'0 0.0
2018-Jul-05 22:31N 37°49' W 122°25'0 0.0
2018-Jul-05 22:01N 37°49' W 122°25'0 0.0
2018-Jul-05 21:31N 37°49' W 122°25'0 0.0
2018-Jul-05 21:00N 37°49' W 122°25'0 0.0
2018-Jul-05 20:30N 37°49' W 122°25'0 0.0
2018-Jul-05 20:01N 37°49' W 122°25'0 0.0
2018-Jul-05 19:31N 37°49' W 122°25'0 0.0
2018-Jul-05 19:00N 37°49' W 122°25'0 0.0
2018-Jul-05 18:30N 37°49' W 122°25'0 0.0
2018-Jul-05 18:00N 37°49' W 122°25'0 0.0
2018-Jul-05 17:30N 37°49' W 122°25'0 0.0
2018-Jul-05 16:59N 37°49' W 122°25'0 0.0
2018-Jul-05 16:27N 37°49' W 122°25'0 0.0
2018-Jul-05 15:58N 37°49' W 122°25'0 0.0
2018-Jul-05 15:30N 37°49' W 122°25'0 0.0
2018-Jul-05 15:00N 37°49' W 122°25'0 0.0
2018-Jul-05 02:18N 37°49' W 122°25'2 5.1
2018-Jul-05 02:00N 37°48' W 122°23'2 3.1
2018-Jul-05 01:30N 37°49' W 122°25'0 0.0
2018-Jul-05 01:00N 37°49' W 122°25'1 1.5
2018-Jul-05 00:30N 37°49' W 122°24'1 1.5
2018-Jul-05 00:00N 37°49' W 122°25'0 0.0
2018-Jul-04 23:30N 37°49' W 122°25'1 2.9
2018-Jul-04 23:01N 37°48' W 122°23'1 2.8
2018-Jul-04 22:30N 37°49' W 122°25'2 3.6
2018-Jul-04 22:01N 37°48' W 122°23'2 3.5
2018-Jul-04 21:30N 37°49' W 122°25'0 0.0
2018-Jul-04 21:00N 37°49' W 122°25'2 3.5
2018-Jul-04 20:30N 37°48' W 122°23'2 3.3
2018-Jul-04 20:00N 37°49' W 122°25'0 0.0
2018-Jul-04 19:30N 37°49' W 122°25'0 0.0
2018-Jul-04 19:00N 37°49' W 122°25'0 0.0
2018-Jul-04 18:30N 37°49' W 122°25'0 0.0
2018-Jul-04 18:00N 37°49' W 122°25'0 0.0
2018-Jul-04 05:02N 37°49' W 122°25'0 0.0
2018-Jul-04 05:00N 37°49' W 122°25'0 0.0
2018-Jul-04 04:30N 37°49' W 122°25'0 0.0
2018-Jul-04 02:28N 37°49' W 122°25'2 4.0
2018-Jul-04 02:01N 37°48' W 122°23'2 3.6
2018-Jul-04 01:31N 37°49' W 122°25'0 0.0
2018-Jul-04 01:00N 37°49' W 122°25'2 3.9
2018-Jul-04 00:30N 37°48' W 122°23'2 3.7
2018-Jul-04 00:00N 37°49' W 122°25'0 0.0
2018-Jul-03 23:30N 37°49' W 122°25'2 3.4
2018-Jul-03 23:01N 37°48' W 122°23'2 3.2
2018-Jul-03 22:30N 37°49' W 122°25'2 3.6
2018-Jul-03 22:00N 37°48' W 122°23'2 3.6
2018-Jul-03 21:31N 37°49' W 122°25'0 0.0
2018-Jul-03 21:00N 37°49' W 122°25'2 3.7
2018-Jul-03 20:31N 37°47' W 122°23'2 3.4
2018-Jul-03 19:58N 37°49' W 122°25'0 0.0
2018-Jul-03 19:27N 37°49' W 122°25'0 0.0
2018-Jul-03 19:00N 37°49' W 122°25'0 0.0
2018-Jul-03 18:30N 37°49' W 122°25'0 0.0
2018-Jul-03 02:19N 37°49' W 122°25'2 6.6
2018-Jul-03 02:00N 37°47' W 122°23'2 3.8
2018-Jul-03 01:29N 37°49' W 122°25'0 0.0
2018-Jul-03 01:00N 37°49' W 122°25'2 4.1
2018-Jul-03 00:30N 37°47' W 122°23'2 4.1
2018-Jul-03 00:00N 37°49' W 122°25'0 0.0
2018-Jul-02 23:30N 37°49' W 122°25'2 3.7
2018-Jul-02 23:00N 37°48' W 122°23'2 3.6
2018-Jul-02 22:30N 37°49' W 122°25'2 3.4
2018-Jul-02 22:00N 37°48' W 122°23'2 3.4
2018-Jul-02 21:30N 37°49' W 122°25'0 0.0
2018-Jul-02 21:00N 37°49' W 122°25'2 3.5
2018-Jul-02 20:30N 37°48' W 122°23'2 3.5
2018-Jul-02 20:00N 37°49' W 122°25'0 0.0
2018-Jul-02 19:30N 37°49' W 122°25'0 0.0
2018-Jul-02 19:00N 37°49' W 122°25'0 0.1
2018-Jul-02 18:30N 37°49' W 122°25'0 0.0
2018-Jul-02 02:32N 37°49' W 122°25'0 0.0
2018-Jul-02 02:29N 37°49' W 122°25'2 4.0
2018-Jul-02 02:00N 37°47' W 122°23'2 3.8
2018-Jul-02 01:30N 37°49' W 122°25'0 0.0
2018-Jul-02 01:00N 37°49' W 122°25'2 4.5
2018-Jul-02 00:30N 37°48' W 122°22'2 4.2
2018-Jul-01 23:59N 37°49' W 122°25'0 0.0
2018-Jul-01 23:30N 37°49' W 122°25'2 3.8
2018-Jul-01 23:00N 37°48' W 122°23'2 3.5
2018-Jul-01 22:29N 37°49' W 122°25'2 4.1
2018-Jul-01 22:00N 37°47' W 122°23'2 3.8
2018-Jul-01 21:30N 37°49' W 122°25'0 0.0
2018-Jul-01 20:59N 37°49' W 122°25'  
Track history (hours):
 
Tides and Currents Weather Stations Pressure Air Temp Water Temp Dewpoint Dewpoint Depression Visibility Wind Speed Wind Dir Waves Ship Positions

Rocketboat

Owner: Blue and Gold Fleet, San Francisco, CA. More information available from US FCC via Universal Licensing System and Coast Guard Vessel Documentation Center.

Last reported at 2018-Jul-11 20:38 UTC. Time now 2018-Jul-17 09:31 UTC.
Position N 37°55' W 122°22'.

Length 22 m.

Type: Passenger vessel. MMSI: 367350770.

Date/timePositionNaut miles runAvg speedWind from/ knotsBaromVisibWave heightAir tempDewpointWater temp
2018-Jul-11 20:38N 37°55' W 122°22'0 0.0
2018-Jul-11 20:27N 37°55' W 122°22'0 0.1
2018-Jul-11 19:23N 37°55' W 122°22'1 3.8
2018-Jul-11 19:00N 37°54' W 122°24'510.6
2018-Jul-11 18:30N 37°49' W 122°24'1 0.2
2018-Jul-11 15:43N 37°49' W 122°25'0 0.0
2018-Jul-11 15:30N 37°49' W 122°25'0 0.0
2018-Jul-11 14:59N 37°49' W 122°25'0 0.0
2018-Jul-11 04:27N 37°49' W 122°25'0 0.0
2018-Jul-11 03:59N 37°49' W 122°25'0 0.0
2018-Jul-11 03:30N 37°49' W 122°25'0 0.0
2018-Jul-11 03:00N 37°49' W 122°25'0 0.0
2018-Jul-11 02:30N 37°49' W 122°25'0 0.0
2018-Jul-11 02:00N 37°49' W 122°25'0 0.0
2018-Jul-11 01:30N 37°49' W 122°25'0 0.0
2018-Jul-11 01:00N 37°49' W 122°25'0 0.0
2018-Jul-11 00:30N 37°49' W 122°25'0 0.0
2018-Jul-11 00:00N 37°49' W 122°25'0 0.0
2018-Jul-09 20:59N 37°49' W 122°25'2 3.5
2018-Jul-09 20:30N 37°48' W 122°23'2 3.3
2018-Jul-09 20:00N 37°49' W 122°25'0 0.0
2018-Jul-09 19:30N 37°49' W 122°25'0 0.1
2018-Jul-09 18:57N 37°49' W 122°25'0 0.3
2018-Jul-09 18:30N 37°49' W 122°25'0 0.3
2018-Jul-09 18:00N 37°49' W 122°25'0 0.0
2018-Jul-09 17:30N 37°49' W 122°25'0 0.0
2018-Jul-09 17:00N 37°49' W 122°25'0 0.0
2018-Jul-09 16:30N 37°49' W 122°25'0 0.0
2018-Jul-09 16:00N 37°49' W 122°25'0 0.0
2018-Jul-09 02:37N 37°49' W 122°25'0 0.0
2018-Jul-09 02:30N 37°49' W 122°25'1 3.0
2018-Jul-09 02:00N 37°48' W 122°23'1 3.0
2018-Jul-09 01:30N 37°49' W 122°25'0 0.0
2018-Jul-09 01:00N 37°49' W 122°25'2 3.2
2018-Jul-09 00:30N 37°48' W 122°23'2 3.2
2018-Jul-09 00:00N 37°49' W 122°25'0 0.0
2018-Jul-08 23:30N 37°49' W 122°25'2 4.0
2018-Jul-08 23:01N 37°48' W 122°22'2 3.9
2018-Jul-08 22:30N 37°49' W 122°25'2 4.5
2018-Jul-08 22:00N 37°47' W 122°23'2 4.4
2018-Jul-08 21:30N 37°49' W 122°25'0 0.0
2018-Jul-08 21:00N 37°49' W 122°25'2 3.8
2018-Jul-08 20:30N 37°47' W 122°23'2 3.9
2018-Jul-08 20:00N 37°49' W 122°25'0 0.0
2018-Jul-08 19:30N 37°49' W 122°25'0 0.0
2018-Jul-08 19:00N 37°49' W 122°25'0 0.1
2018-Jul-08 18:30N 37°49' W 122°25'0 0.0
2018-Jul-08 03:02N 37°49' W 122°25'0 0.0
2018-Jul-08 03:00N 37°49' W 122°25'0 0.0
2018-Jul-08 02:30N 37°49' W 122°25'2 3.4
2018-Jul-08 02:01N 37°48' W 122°23'2 3.3
2018-Jul-08 01:30N 37°49' W 122°25'0 0.0
2018-Jul-08 00:59N 37°49' W 122°25'2 3.2
2018-Jul-08 00:31N 37°48' W 122°23'2 2.9
2018-Jul-07 23:59N 37°49' W 122°25'0 0.0
2018-Jul-07 23:30N 37°49' W 122°25'2 3.7
2018-Jul-07 23:01N 37°48' W 122°22'2 3.7
2018-Jul-07 22:30N 37°49' W 122°25'2 4.9
2018-Jul-07 22:01N 37°47' W 122°22'2 4.8
2018-Jul-07 21:30N 37°49' W 122°25'0 0.0
2018-Jul-07 21:00N 37°49' W 122°25'2 3.1
2018-Jul-07 20:30N 37°48' W 122°23'2 3.3
2018-Jul-07 20:00N 37°49' W 122°25'0 0.3
2018-Jul-07 19:30N 37°49' W 122°25'0 0.2
2018-Jul-07 19:00N 37°49' W 122°25'0 0.0
2018-Jul-07 18:30N 37°49' W 122°25'0 0.0
2018-Jul-07 18:00N 37°49' W 122°25'0 0.0
2018-Jul-07 17:30N 37°49' W 122°25'0 0.0
2018-Jul-07 02:19N 37°49' W 122°25'2 6.8
2018-Jul-07 02:00N 37°47' W 122°23'2 4.1
2018-Jul-07 01:30N 37°49' W 122°25'0 0.0
2018-Jul-07 01:01N 37°49' W 122°25'0 0.0
2018-Jul-07 00:30N 37°49' W 122°25'0 0.0
2018-Jul-07 00:00N 37°49' W 122°25'0 0.0
2018-Jul-06 23:31N 37°49' W 122°25'0 0.0
2018-Jul-06 23:00N 37°49' W 122°25'0 0.0
2018-Jul-06 22:31N 37°49' W 122°25'0 0.0
2018-Jul-06 22:00N 37°49' W 122°25'0 0.0
2018-Jul-06 21:31N 37°49' W 122°25'0 0.0
2018-Jul-06 20:59N 37°49' W 122°25'0 0.0
2018-Jul-06 20:31N 37°49' W 122°25'0 0.0
2018-Jul-06 20:00N 37°49' W 122°25'0 0.0
2018-Jul-06 19:30N 37°49' W 122°25'0 0.0
2018-Jul-06 19:00N 37°49' W 122°25'0 0.0
2018-Jul-06 18:31N 37°49' W 122°25'0 0.0
2018-Jul-06 18:00N 37°49' W 122°25'0 0.0
2018-Jul-06 17:29N 37°49' W 122°25'0 0.0
2018-Jul-06 16:59N 37°49' W 122°25'0 0.0
2018-Jul-06 16:30N 37°49' W 122°25'0 0.0
2018-Jul-06 16:00N 37°49' W 122°25'0 0.0
2018-Jul-06 15:30N 37°49' W 122°25'0 0.0
2018-Jul-06 14:59N 37°49' W 122°25'0 0.0
2018-Jul-06 14:31N 37°49' W 122°25'0 0.0
2018-Jul-06 14:00N 37°49' W 122°25'0 0.0
2018-Jul-06 13:30N 37°49' W 122°25'0 0.0
2018-Jul-06 13:01N 37°49' W 122°25'0 0.0
2018-Jul-06 12:29N 37°49' W 122°25'0 0.0
2018-Jul-06 11:58N 37°49' W 122°25'0 0.0
2018-Jul-06 11:25N 37°49' W 122°25'0 0.0
2018-Jul-06 11:00N 37°49' W 122°25'0 0.0
2018-Jul-06 10:30N 37°49' W 122°25'0 0.0
2018-Jul-06 10:00N 37°49' W 122°25'0 0.0
2018-Jul-06 09:31N 37°49' W 122°25'0 0.0
2018-Jul-06 09:01N 37°49' W 122°25'0 0.0
2018-Jul-06 08:31N 37°49' W 122°25'0 0.0
2018-Jul-06 07:59N 37°49' W 122°25'0 0.0
2018-Jul-06 07:30N 37°49' W 122°25'0 0.0
2018-Jul-06 07:00N 37°49' W 122°25'0 0.0
2018-Jul-06 06:31N 37°49' W 122°25'0 0.0
2018-Jul-06 06:00N 37°49' W 122°25'0 0.0
2018-Jul-06 05:30N 37°49' W 122°25'0 0.0
2018-Jul-06 05:00N 37°49' W 122°25'0 0.0
2018-Jul-06 04:31N 37°49' W 122°25'0 0.0
2018-Jul-06 04:01N 37°49' W 122°25'0 0.0
2018-Jul-06 03:31N 37°49' W 122°25'0 0.0
2018-Jul-06 03:01N 37°49' W 122°25'0 0.0
2018-Jul-06 02:31N 37°49' W 122°25'0 0.0
2018-Jul-06 02:00N 37°49' W 122°25'0 0.0
2018-Jul-06 01:31N 37°49' W 122°25'0 0.0
2018-Jul-06 01:00N 37°49' W 122°25'0 0.0
2018-Jul-06 00:30N 37°49' W 122°25'0 0.0
2018-Jul-06 00:01N 37°49' W 122°25'0 0.0
2018-Jul-05 23:31N 37°49' W 122°25'0 0.0
2018-Jul-05 23:00N 37°49' W 122°25'0 0.0
2018-Jul-05 22:31N 37°49' W 122°25'0 0.0
2018-Jul-05 22:01N 37°49' W 122°25'0 0.0
2018-Jul-05 21:31N 37°49' W 122°25'0 0.0
2018-Jul-05 21:00N 37°49' W 122°25'0 0.0
2018-Jul-05 20:30N 37°49' W 122°25'0 0.0
2018-Jul-05 20:01N 37°49' W 122°25'0 0.0
2018-Jul-05 19:31N 37°49' W 122°25'0 0.0
2018-Jul-05 19:00N 37°49' W 122°25'0 0.0
2018-Jul-05 18:30N 37°49' W 122°25'0 0.0
2018-Jul-05 18:00N 37°49' W 122°25'0 0.0
2018-Jul-05 17:30N 37°49' W 122°25'0 0.0
2018-Jul-05 16:59N 37°49' W 122°25'0 0.0
2018-Jul-05 16:27N 37°49' W 122°25'0 0.0
2018-Jul-05 15:58N 37°49' W 122°25'0 0.0
2018-Jul-05 15:30N 37°49' W 122°25'0 0.0
2018-Jul-05 15:00N 37°49' W 122°25'0 0.0
2018-Jul-05 02:18N 37°49' W 122°25'2 5.1
2018-Jul-05 02:00N 37°48' W 122°23'2 3.1
2018-Jul-05 01:30N 37°49' W 122°25'0 0.0
2018-Jul-05 01:00N 37°49' W 122°25'1 1.5
2018-Jul-05 00:30N 37°49' W 122°24'1 1.5
2018-Jul-05 00:00N 37°49' W 122°25'0 0.0
2018-Jul-04 23:30N 37°49' W 122°25'1 2.9
2018-Jul-04 23:01N 37°48' W 122°23'1 2.8
2018-Jul-04 22:30N 37°49' W 122°25'2 3.6
2018-Jul-04 22:01N 37°48' W 122°23'2 3.5
2018-Jul-04 21:30N 37°49' W 122°25'0 0.0
2018-Jul-04 21:00N 37°49' W 122°25'2 3.5
2018-Jul-04 20:30N 37°48' W 122°23'2 3.3
2018-Jul-04 20:00N 37°49' W 122°25'0 0.0
2018-Jul-04 19:30N 37°49' W 122°25'0 0.0
2018-Jul-04 19:00N 37°49' W 122°25'0 0.0
2018-Jul-04 18:30N 37°49' W 122°25'0 0.0
2018-Jul-04 18:00N 37°49' W 122°25'0 0.0
2018-Jul-04 05:02N 37°49' W 122°25'0 0.0
2018-Jul-04 05:00N 37°49' W 122°25'0 0.0
2018-Jul-04 04:30N 37°49' W 122°25'0 0.0
2018-Jul-04 02:28N 37°49' W 122°25'2 4.0
2018-Jul-04 02:01N 37°48' W 122°23'2 3.6
2018-Jul-04 01:31N 37°49' W 122°25'0 0.0
2018-Jul-04 01:00N 37°49' W 122°25'2 3.9
2018-Jul-04 00:30N 37°48' W 122°23'2 3.7
2018-Jul-04 00:00N 37°49' W 122°25'0 0.0
2018-Jul-03 23:30N 37°49' W 122°25'2 3.4
2018-Jul-03 23:01N 37°48' W 122°23'2 3.2
2018-Jul-03 22:30N 37°49' W 122°25'2 3.6
2018-Jul-03 22:00N 37°48' W 122°23'2 3.6
2018-Jul-03 21:31N 37°49' W 122°25'0 0.0
2018-Jul-03 21:00N 37°49' W 122°25'2 3.7
2018-Jul-03 20:31N 37°47' W 122°23'2 3.4
2018-Jul-03 19:58N 37°49' W 122°25'0 0.0
2018-Jul-03 19:27N 37°49' W 122°25'0 0.0
2018-Jul-03 19:00N 37°49' W 122°25'0 0.0
2018-Jul-03 18:30N 37°49' W 122°25'0 0.0
2018-Jul-03 02:19N 37°49' W 122°25'2 6.6
2018-Jul-03 02:00N 37°47' W 122°23'2 3.8
2018-Jul-03 01:29N 37°49' W 122°25'0 0.0
2018-Jul-03 01:00N 37°49' W 122°25'2 4.1
2018-Jul-03 00:30N 37°47' W 122°23'2 4.1
2018-Jul-03 00:00N 37°49' W 122°25'0 0.0
2018-Jul-02 23:30N 37°49' W 122°25'2 3.7
2018-Jul-02 23:00N 37°48' W 122°23'2 3.6
2018-Jul-02 22:30N 37°49' W 122°25'2 3.4
2018-Jul-02 22:00N 37°48' W 122°23'2 3.4
2018-Jul-02 21:30N 37°49' W 122°25'0 0.0
2018-Jul-02 21:00N 37°49' W 122°25'2 3.5
2018-Jul-02 20:30N 37°48' W 122°23'2 3.5
2018-Jul-02 20:00N 37°49' W 122°25'0 0.0
2018-Jul-02 19:30N 37°49' W 122°25'0 0.0
2018-Jul-02 19:00N 37°49' W 122°25'0 0.1
2018-Jul-02 18:30N 37°49' W 122°25'0 0.0
2018-Jul-02 02:32N 37°49' W 122°25'0 0.0
2018-Jul-02 02:29N 37°49' W 122°25'2 4.0
2018-Jul-02 02:00N 37°47' W 122°23'2 3.8
2018-Jul-02 01:30N 37°49' W 122°25'0 0.0
2018-Jul-02 01:00N 37°49' W 122°25'2 4.5
2018-Jul-02 00:30N 37°48' W 122°22'2 4.2
2018-Jul-01 23:59N 37°49' W 122°25'0 0.0
2018-Jul-01 23:30N 37°49' W 122°25'2 3.8
2018-Jul-01 23:00N 37°48' W 122°23'2 3.5
2018-Jul-01 22:29N 37°49' W 122°25'2 4.1
2018-Jul-01 22:00N 37°47' W 122°23'2 3.8
2018-Jul-01 21:30N 37°49' W 122°25'0 0.0
2018-Jul-01 20:59N 37°49' W 122°25'  

Dump ship's entire track history